sensor_id;sensor_type;location;lat;lon;timestamp;temperature;humidity
22838;DHT22;11585;51.450;-0.240;2023-07-13T00:00:47;19.80;99.90
22838;DHT22;11585;51.450;-0.240;2023-07-13T00:03:12;19.80;99.90
22838;DHT22;11585;51.450;-0.240;2023-07-13T00:09:01;19.70;99.90
22838;DHT22;11585;51.450;-0.240;2023-07-13T00:11:27;19.70;99.90
22838;DHT22;11585;51.450;-0.240;2023-07-13T00:13:53;19.70;99.90
22838;DHT22;11585;51.450;-0.240;2023-07-13T00:16:38;19.70;99.90
22838;DHT22;11585;51.450;-0.240;2023-07-13T00:19:04;19.70;99.90
22838;DHT22;11585;51.450;-0.240;2023-07-13T00:21:30;19.60;99.90
22838;DHT22;11585;51.450;-0.240;2023-07-13T00:23:57;19.60;99.90
22838;DHT22;11585;51.450;-0.240;2023-07-13T00:26:23;19.60;99.90
22838;DHT22;11585;51.450;-0.240;2023-07-13T00:28:49;19.60;99.90
22838;DHT22;11585;51.450;-0.240;2023-07-13T00:31:14;19.60;99.90
22838;DHT22;11585;51.450;-0.240;2023-07-13T00:33:41;19.50;99.90
22838;DHT22;11585;51.450;-0.240;2023-07-13T00:36:09;19.50;99.90
22838;DHT22;11585;51.450;-0.240;2023-07-13T00:38:35;19.50;99.90
22838;DHT22;11585;51.450;-0.240;2023-07-13T00:41:03;19.50;99.90
22838;DHT22;11585;51.450;-0.240;2023-07-13T00:43:30;19.50;99.90
22838;DHT22;11585;51.450;-0.240;2023-07-13T00:48:25;19.50;99.90
22838;DHT22;11585;51.450;-0.240;2023-07-13T00:50:56;19.50;99.90
22838;DHT22;11585;51.450;-0.240;2023-07-13T00:53:25;19.40;99.90
22838;DHT22;11585;51.450;-0.240;2023-07-13T00:59:15;19.40;99.90
22838;DHT22;11585;51.450;-0.240;2023-07-13T01:01:42;19.40;99.90
22838;DHT22;11585;51.450;-0.240;2023-07-13T01:04:10;19.40;99.90
22838;DHT22;11585;51.450;-0.240;2023-07-13T01:06:37;19.30;99.90
22838;DHT22;11585;51.450;-0.240;2023-07-13T01:09:04;19.30;99.90
22838;DHT22;11585;51.450;-0.240;2023-07-13T01:11:31;19.30;99.90
22838;DHT22;11585;51.450;-0.240;2023-07-13T01:13:57;19.30;99.90
22838;DHT22;11585;51.450;-0.240;2023-07-13T01:19:38;19.30;99.90
22838;DHT22;11585;51.450;-0.240;2023-07-13T01:22:16;19.20;99.90
22838;DHT22;11585;51.450;-0.240;2023-07-13T01:25:01;19.20;99.90
22838;DHT22;11585;51.450;-0.240;2023-07-13T01:27:27;19.20;99.90
22838;DHT22;11585;51.450;-0.240;2023-07-13T01:29:53;19.20;99.90
22838;DHT22;11585;51.450;-0.240;2023-07-13T01:32:27;19.10;99.90
22838;DHT22;11585;51.450;-0.240;2023-07-13T01:34:54;19.10;99.90
22838;DHT22;11585;51.450;-0.240;2023-07-13T01:37:20;19.10;99.90
22838;DHT22;11585;51.450;-0.240;2023-07-13T01:39:47;19.10;99.90
22838;DHT22;11585;51.450;-0.240;2023-07-13T01:42:13;19.10;99.90
22838;DHT22;11585;51.450;-0.240;2023-07-13T01:48:01;19.10;99.90
22838;DHT22;11585;51.450;-0.240;2023-07-13T01:50:27;19.00;99.90
22838;DHT22;11585;51.450;-0.240;2023-07-13T01:52:52;19.00;99.90
22838;DHT22;11585;51.450;-0.240;2023-07-13T01:55:19;19.00;99.90
22838;DHT22;11585;51.450;-0.240;2023-07-13T01:57:45;19.00;99.90
22838;DHT22;11585;51.450;-0.240;2023-07-13T02:00:13;19.00;99.90
22838;DHT22;11585;51.450;-0.240;2023-07-13T02:02:39;19.00;99.90
22838;DHT22;11585;51.450;-0.240;2023-07-13T02:05:06;19.00;99.90
22838;DHT22;11585;51.450;-0.240;2023-07-13T02:07:32;19.00;99.90
22838;DHT22;11585;51.450;-0.240;2023-07-13T02:09:58;19.00;99.90
22838;DHT22;11585;51.450;-0.240;2023-07-13T02:12:24;18.90;99.90
22838;DHT22;11585;51.450;-0.240;2023-07-13T02:14:50;18.90;99.90
22838;DHT22;11585;51.450;-0.240;2023-07-13T02:17:16;18.90;99.90
22838;DHT22;11585;51.450;-0.240;2023-07-13T02:19:42;18.90;99.90
22838;DHT22;11585;51.450;-0.240;2023-07-13T02:22:07;18.90;99.90
22838;DHT22;11585;51.450;-0.240;2023-07-13T02:24:34;18.90;99.90
22838;DHT22;11585;51.450;-0.240;2023-07-13T02:27:00;18.90;99.90
22838;DHT22;11585;51.450;-0.240;2023-07-13T02:29:25;18.80;99.90
22838;DHT22;11585;51.450;-0.240;2023-07-13T02:31:51;18.90;99.90
22838;DHT22;11585;51.450;-0.240;2023-07-13T02:37:20;18.90;99.90
22838;DHT22;11585;51.450;-0.240;2023-07-13T02:39:46;18.80;99.90
22838;DHT22;11585;51.450;-0.240;2023-07-13T02:42:13;18.80;99.90
22838;DHT22;11585;51.450;-0.240;2023-07-13T02:47:43;18.80;99.90
22838;DHT22;11585;51.450;-0.240;2023-07-13T02:50:09;18.70;99.90
22838;DHT22;11585;51.450;-0.240;2023-07-13T02:52:34;18.80;99.90
22838;DHT22;11585;51.450;-0.240;2023-07-13T02:55:03;18.80;99.90
22838;DHT22;11585;51.450;-0.240;2023-07-13T02:57:29;18.70;99.90
22838;DHT22;11585;51.450;-0.240;2023-07-13T02:59:55;18.70;99.90
22838;DHT22;11585;51.450;-0.240;2023-07-13T03:02:21;18.70;99.90
22838;DHT22;11585;51.450;-0.240;2023-07-13T03:05:07;18.70;99.90
22838;DHT22;11585;51.450;-0.240;2023-07-13T03:07:36;18.70;99.90
22838;DHT22;11585;51.450;-0.240;2023-07-13T03:10:02;18.70;99.90
22838;DHT22;11585;51.450;-0.240;2023-07-13T03:12:28;18.70;99.90
22838;DHT22;11585;51.450;-0.240;2023-07-13T03:15:13;18.60;99.90
22838;DHT22;11585;51.450;-0.240;2023-07-13T03:17:39;18.70;99.90
22838;DHT22;11585;51.450;-0.240;2023-07-13T03:20:05;18.60;99.90
22838;DHT22;11585;51.450;-0.240;2023-07-13T03:22:32;18.60;99.90
22838;DHT22;11585;51.450;-0.240;2023-07-13T03:24:59;18.60;99.90
22838;DHT22;11585;51.450;-0.240;2023-07-13T03:27:24;18.60;99.90
22838;DHT22;11585;51.450;-0.240;2023-07-13T03:29:50;18.60;99.90
22838;DHT22;11585;51.450;-0.240;2023-07-13T03:32:15;18.60;99.90
22838;DHT22;11585;51.450;-0.240;2023-07-13T03:38:03;18.60;99.90
22838;DHT22;11585;51.450;-0.240;2023-07-13T03:40:29;18.60;99.90
22838;DHT22;11585;51.450;-0.240;2023-07-13T03:42:55;18.50;99.90
22838;DHT22;11585;51.450;-0.240;2023-07-13T03:45:21;18.50;99.90
22838;DHT22;11585;51.450;-0.240;2023-07-13T03:47:47;18.50;99.90
22838;DHT22;11585;51.450;-0.240;2023-07-13T03:50:12;18.50;99.90
22838;DHT22;11585;51.450;-0.240;2023-07-13T03:52:38;18.50;99.90
22838;DHT22;11585;51.450;-0.240;2023-07-13T03:55:05;18.50;99.90
22838;DHT22;11585;51.450;-0.240;2023-07-13T03:57:31;18.50;99.90
22838;DHT22;11585;51.450;-0.240;2023-07-13T03:59:57;18.40;99.90
22838;DHT22;11585;51.450;-0.240;2023-07-13T04:02:23;18.50;99.90
22838;DHT22;11585;51.450;-0.240;2023-07-13T04:04:49;18.40;99.90
22838;DHT22;11585;51.450;-0.240;2023-07-13T04:07:15;18.40;99.90
22838;DHT22;11585;51.450;-0.240;2023-07-13T04:09:41;18.40;99.90
22838;DHT22;11585;51.450;-0.240;2023-07-13T04:12:06;18.40;99.90
22838;DHT22;11585;51.450;-0.240;2023-07-13T04:14:33;18.40;99.90
22838;DHT22;11585;51.450;-0.240;2023-07-13T04:16:58;18.40;99.90
22838;DHT22;11585;51.450;-0.240;2023-07-13T04:19:24;18.40;99.90
22838;DHT22;11585;51.450;-0.240;2023-07-13T04:21:49;18.40;99.90
22838;DHT22;11585;51.450;-0.240;2023-07-13T04:27:37;18.40;99.90
22838;DHT22;11585;51.450;-0.240;2023-07-13T04:30:06;18.30;99.90
22838;DHT22;11585;51.450;-0.240;2023-07-13T04:32:32;18.30;99.90
22838;DHT22;11585;51.450;-0.240;2023-07-13T04:38:20;18.30;99.90
22838;DHT22;11585;51.450;-0.240;2023-07-13T04:43:49;18.30;99.90
22838;DHT22;11585;51.450;-0.240;2023-07-13T04:49:38;18.30;99.90
22838;DHT22;11585;51.450;-0.240;2023-07-13T04:52:04;18.20;99.90
22838;DHT22;11585;51.450;-0.240;2023-07-13T04:54:34;18.30;99.90
22838;DHT22;11585;51.450;-0.240;2023-07-13T04:57:00;18.20;99.90
22838;DHT22;11585;51.450;-0.240;2023-07-13T04:59:26;18.20;99.90
22838;DHT22;11585;51.450;-0.240;2023-07-13T05:01:52;18.20;99.90
22838;DHT22;11585;51.450;-0.240;2023-07-13T05:04:36;18.20;99.90
22838;DHT22;11585;51.450;-0.240;2023-07-13T05:07:02;18.20;99.90
22838;DHT22;11585;51.450;-0.240;2023-07-13T05:09:28;18.20;99.90
22838;DHT22;11585;51.450;-0.240;2023-07-13T05:11:53;18.20;99.90
22838;DHT22;11585;51.450;-0.240;2023-07-13T05:14:23;18.20;99.90
22838;DHT22;11585;51.450;-0.240;2023-07-13T05:16:49;18.20;99.90
22838;DHT22;11585;51.450;-0.240;2023-07-13T05:19:14;18.10;99.90
22838;DHT22;11585;51.450;-0.240;2023-07-13T05:21:40;18.10;99.90
22838;DHT22;11585;51.450;-0.240;2023-07-13T05:24:06;18.10;99.90
22838;DHT22;11585;51.450;-0.240;2023-07-13T05:26:32;18.20;99.90
22838;DHT22;11585;51.450;-0.240;2023-07-13T05:28:58;18.10;99.90
22838;DHT22;11585;51.450;-0.240;2023-07-13T05:31:23;18.20;99.90
22838;DHT22;11585;51.450;-0.240;2023-07-13T05:33:49;18.10;99.90
22838;DHT22;11585;51.450;-0.240;2023-07-13T05:36:15;18.10;99.90
22838;DHT22;11585;51.450;-0.240;2023-07-13T05:38:40;18.20;99.90
22838;DHT22;11585;51.450;-0.240;2023-07-13T05:41:06;18.20;99.90
22838;DHT22;11585;51.450;-0.240;2023-07-13T05:43:32;18.10;99.90
22838;DHT22;11585;51.450;-0.240;2023-07-13T05:49:20;18.10;99.90
22838;DHT22;11585;51.450;-0.240;2023-07-13T05:51:46;18.10;99.90
22838;DHT22;11585;51.450;-0.240;2023-07-13T05:57:33;18.10;99.90
22838;DHT22;11585;51.450;-0.240;2023-07-13T05:59:59;18.20;99.90
22838;DHT22;11585;51.450;-0.240;2023-07-13T06:02:24;18.20;99.90
22838;DHT22;11585;51.450;-0.240;2023-07-13T06:07:55;18.20;99.90
22838;DHT22;11585;51.450;-0.240;2023-07-13T06:10:21;18.20;99.90
22838;DHT22;11585;51.450;-0.240;2023-07-13T06:12:46;18.20;99.90
22838;DHT22;11585;51.450;-0.240;2023-07-13T06:15:12;18.20;99.90
22838;DHT22;11585;51.450;-0.240;2023-07-13T06:17:38;18.20;99.90
22838;DHT22;11585;51.450;-0.240;2023-07-13T06:20:04;18.20;99.90
22838;DHT22;11585;51.450;-0.240;2023-07-13T06:22:29;18.20;99.90
22838;DHT22;11585;51.450;-0.240;2023-07-13T06:25:16;18.30;99.90
22838;DHT22;11585;51.450;-0.240;2023-07-13T06:27:43;18.30;99.90
22838;DHT22;11585;51.450;-0.240;2023-07-13T06:30:09;18.30;99.90
22838;DHT22;11585;51.450;-0.240;2023-07-13T06:32:35;18.30;99.90
22838;DHT22;11585;51.450;-0.240;2023-07-13T06:38:23;18.30;99.90
22838;DHT22;11585;51.450;-0.240;2023-07-13T06:40:49;18.30;99.90
22838;DHT22;11585;51.450;-0.240;2023-07-13T06:43:14;18.30;99.90
22838;DHT22;11585;51.450;-0.240;2023-07-13T06:45:44;18.30;99.90
22838;DHT22;11585;51.450;-0.240;2023-07-13T06:48:15;18.40;99.90
22838;DHT22;11585;51.450;-0.240;2023-07-13T06:50:42;18.40;99.90
22838;DHT22;11585;51.450;-0.240;2023-07-13T06:53:08;18.40;99.90
22838;DHT22;11585;51.450;-0.240;2023-07-13T06:58:56;18.40;99.90
22838;DHT22;11585;51.450;-0.240;2023-07-13T07:01:22;18.40;99.90
22838;DHT22;11585;51.450;-0.240;2023-07-13T07:03:47;18.40;99.90
22838;DHT22;11585;51.450;-0.240;2023-07-13T07:09:02;18.50;99.90
22838;DHT22;11585;51.450;-0.240;2023-07-13T07:11:28;18.50;99.90
22838;DHT22;11585;51.450;-0.240;2023-07-13T07:13:54;18.60;99.90
22838;DHT22;11585;51.450;-0.240;2023-07-13T07:16:21;18.60;99.90
22838;DHT22;11585;51.450;-0.240;2023-07-13T07:18:48;18.60;99.90
22838;DHT22;11585;51.450;-0.240;2023-07-13T07:21:14;18.60;99.90
22838;DHT22;11585;51.450;-0.240;2023-07-13T07:23:39;18.60;99.90
22838;DHT22;11585;51.450;-0.240;2023-07-13T07:26:24;18.60;99.90
22838;DHT22;11585;51.450;-0.240;2023-07-13T07:28:50;18.70;99.90
22838;DHT22;11585;51.450;-0.240;2023-07-13T07:31:15;18.60;99.90
22838;DHT22;11585;51.450;-0.240;2023-07-13T07:33:41;18.60;99.90
22838;DHT22;11585;51.450;-0.240;2023-07-13T07:36:07;18.70;99.90
22838;DHT22;11585;51.450;-0.240;2023-07-13T07:38:32;18.70;99.90
22838;DHT22;11585;51.450;-0.240;2023-07-13T07:40:58;18.70;99.90
22838;DHT22;11585;51.450;-0.240;2023-07-13T07:43:23;18.70;99.90
22838;DHT22;11585;51.450;-0.240;2023-07-13T07:45:49;18.70;99.90
22838;DHT22;11585;51.450;-0.240;2023-07-13T07:48:15;18.70;99.90
22838;DHT22;11585;51.450;-0.240;2023-07-13T07:50:40;18.70;99.90
22838;DHT22;11585;51.450;-0.240;2023-07-13T07:53:07;18.70;99.90
22838;DHT22;11585;51.450;-0.240;2023-07-13T07:55:52;18.80;99.90
22838;DHT22;11585;51.450;-0.240;2023-07-13T07:58:17;18.80;99.90
22838;DHT22;11585;51.450;-0.240;2023-07-13T08:00:43;18.80;99.90
22838;DHT22;11585;51.450;-0.240;2023-07-13T08:03:09;18.80;99.90
22838;DHT22;11585;51.450;-0.240;2023-07-13T08:05:36;18.80;99.90
22838;DHT22;11585;51.450;-0.240;2023-07-13T08:08:02;18.80;99.90
22838;DHT22;11585;51.450;-0.240;2023-07-13T08:10:28;18.90;99.90
22838;DHT22;11585;51.450;-0.240;2023-07-13T08:12:53;18.90;99.90
22838;DHT22;11585;51.450;-0.240;2023-07-13T08:15:40;18.80;99.90
22838;DHT22;11585;51.450;-0.240;2023-07-13T08:18:06;18.90;99.90
22838;DHT22;11585;51.450;-0.240;2023-07-13T08:20:36;18.90;99.90
22838;DHT22;11585;51.450;-0.240;2023-07-13T08:23:01;18.90;99.90
22838;DHT22;11585;51.450;-0.240;2023-07-13T08:25:50;18.90;99.90
22838;DHT22;11585;51.450;-0.240;2023-07-13T08:28:16;18.90;99.90
22838;DHT22;11585;51.450;-0.240;2023-07-13T08:30:42;18.90;99.90
22838;DHT22;11585;51.450;-0.240;2023-07-13T08:33:07;19.00;99.90
22838;DHT22;11585;51.450;-0.240;2023-07-13T08:35:33;18.90;99.90
22838;DHT22;11585;51.450;-0.240;2023-07-13T08:37:58;19.00;99.90
22838;DHT22;11585;51.450;-0.240;2023-07-13T08:40:27;19.00;99.90
22838;DHT22;11585;51.450;-0.240;2023-07-13T08:42:58;19.00;99.90
22838;DHT22;11585;51.450;-0.240;2023-07-13T08:45:47;19.00;99.90
22838;DHT22;11585;51.450;-0.240;2023-07-13T08:51:00;19.10;99.90
22838;DHT22;11585;51.450;-0.240;2023-07-13T08:53:43;19.10;99.90
22838;DHT22;11585;51.450;-0.240;2023-07-13T08:56:31;19.10;99.90
22838;DHT22;11585;51.450;-0.240;2023-07-13T08:59:13;19.10;99.90
22838;DHT22;11585;51.450;-0.240;2023-07-13T09:02:23;19.10;99.90
22838;DHT22;11585;51.450;-0.240;2023-07-13T09:04:52;19.20;99.90
22838;DHT22;11585;51.450;-0.240;2023-07-13T09:15:25;19.20;99.90
22838;DHT22;11585;51.450;-0.240;2023-07-13T09:17:55;19.20;99.90
22838;DHT22;11585;51.450;-0.240;2023-07-13T09:20:26;19.20;99.90
22838;DHT22;11585;51.450;-0.240;2023-07-13T09:22:53;19.20;99.90
22838;DHT22;11585;51.450;-0.240;2023-07-13T09:25:30;19.20;99.90
22838;DHT22;11585;51.450;-0.240;2023-07-13T09:28:02;19.30;99.90
22838;DHT22;11585;51.450;-0.240;2023-07-13T09:30:56;19.30;99.90
22838;DHT22;11585;51.450;-0.240;2023-07-13T09:33:24;19.40;99.90
22838;DHT22;11585;51.450;-0.240;2023-07-13T09:35:50;19.40;99.90
22838;DHT22;11585;51.450;-0.240;2023-07-13T09:38:18;19.40;99.90
22838;DHT22;11585;51.450;-0.240;2023-07-13T09:40:48;19.40;99.90
22838;DHT22;11585;51.450;-0.240;2023-07-13T09:43:17;19.40;99.90
22838;DHT22;11585;51.450;-0.240;2023-07-13T09:45:46;19.40;99.90
22838;DHT22;11585;51.450;-0.240;2023-07-13T09:48:13;19.50;99.90
22838;DHT22;11585;51.450;-0.240;2023-07-13T09:50:40;19.40;99.90
22838;DHT22;11585;51.450;-0.240;2023-07-13T09:53:12;19.50;99.90
22838;DHT22;11585;51.450;-0.240;2023-07-13T09:55:39;19.50;99.90
22838;DHT22;11585;51.450;-0.240;2023-07-13T09:58:25;19.50;99.90
22838;DHT22;11585;51.450;-0.240;2023-07-13T10:01:02;19.60;99.90
22838;DHT22;11585;51.450;-0.240;2023-07-13T10:03:33;19.60;99.90
22838;DHT22;11585;51.450;-0.240;2023-07-13T10:06:23;19.60;99.90
22838;DHT22;11585;51.450;-0.240;2023-07-13T10:08:52;19.60;99.90
22838;DHT22;11585;51.450;-0.240;2023-07-13T10:11:21;19.60;99.90
22838;DHT22;11585;51.450;-0.240;2023-07-13T10:13:56;19.70;99.90
22838;DHT22;11585;51.450;-0.240;2023-07-13T10:16:27;19.70;99.90
22838;DHT22;11585;51.450;-0.240;2023-07-13T10:18:58;19.70;99.90
22838;DHT22;11585;51.450;-0.240;2023-07-13T10:21:30;19.70;99.90
22838;DHT22;11585;51.450;-0.240;2023-07-13T10:24:23;19.70;99.90
22838;DHT22;11585;51.450;-0.240;2023-07-13T10:29:50;19.80;99.90
22838;DHT22;11585;51.450;-0.240;2023-07-13T10:32:25;19.80;99.90
22838;DHT22;11585;51.450;-0.240;2023-07-13T10:34:51;19.80;99.90
22838;DHT22;11585;51.450;-0.240;2023-07-13T10:37:26;19.80;99.90
22838;DHT22;11585;51.450;-0.240;2023-07-13T10:39:55;19.80;99.90
22838;DHT22;11585;51.450;-0.240;2023-07-13T10:42:29;19.80;99.90
22838;DHT22;11585;51.450;-0.240;2023-07-13T10:45:00;19.90;99.90
22838;DHT22;11585;51.450;-0.240;2023-07-13T10:47:26;19.90;99.90
22838;DHT22;11585;51.450;-0.240;2023-07-13T10:49:54;19.90;99.90
22838;DHT22;11585;51.450;-0.240;2023-07-13T10:52:49;19.90;99.90
22838;DHT22;11585;51.450;-0.240;2023-07-13T10:55:40;19.90;99.90
22838;DHT22;11585;51.450;-0.240;2023-07-13T11:00:53;19.90;99.90
22838;DHT22;11585;51.450;-0.240;2023-07-13T11:03:22;19.90;99.90
22838;DHT22;11585;51.450;-0.240;2023-07-13T11:06:50;20.00;99.90
22838;DHT22;11585;51.450;-0.240;2023-07-13T11:11:44;20.10;99.90
22838;DHT22;11585;51.450;-0.240;2023-07-13T11:14:29;20.10;99.90
22838;DHT22;11585;51.450;-0.240;2023-07-13T11:16:55;20.10;99.90
22838;DHT22;11585;51.450;-0.240;2023-07-13T11:28:16;20.20;99.90
22838;DHT22;11585;51.450;-0.240;2023-07-13T11:30:43;20.30;99.90
22838;DHT22;11585;51.450;-0.240;2023-07-13T11:33:15;20.30;99.90
22838;DHT22;11585;51.450;-0.240;2023-07-13T11:35:47;20.30;99.90
22838;DHT22;11585;51.450;-0.240;2023-07-13T11:38:41;20.30;99.90
22838;DHT22;11585;51.450;-0.240;2023-07-13T11:41:19;20.40;99.90
22838;DHT22;11585;51.450;-0.240;2023-07-13T11:43:48;20.40;99.90
22838;DHT22;11585;51.450;-0.240;2023-07-13T11:46:33;20.40;99.90
22838;DHT22;11585;51.450;-0.240;2023-07-13T11:48:59;20.50;99.90
22838;DHT22;11585;51.450;-0.240;2023-07-13T11:51:30;20.50;99.90
22838;DHT22;11585;51.450;-0.240;2023-07-13T11:54:01;20.50;99.90
22838;DHT22;11585;51.450;-0.240;2023-07-13T11:56:28;20.60;99.90
22838;DHT22;11585;51.450;-0.240;2023-07-13T11:58:56;20.60;99.90
22838;DHT22;11585;51.450;-0.240;2023-07-13T12:01:26;20.60;99.90
22838;DHT22;11585;51.450;-0.240;2023-07-13T12:03:57;20.60;99.90
22838;DHT22;11585;51.450;-0.240;2023-07-13T12:06:28;20.60;99.90
22838;DHT22;11585;51.450;-0.240;2023-07-13T12:09:03;20.70;99.90
22838;DHT22;11585;51.450;-0.240;2023-07-13T12:11:29;20.70;99.90
22838;DHT22;11585;51.450;-0.240;2023-07-13T12:13:55;20.70;99.90
22838;DHT22;11585;51.450;-0.240;2023-07-13T12:16:32;20.70;99.90
22838;DHT22;11585;51.450;-0.240;2023-07-13T12:18:59;20.80;99.90
22838;DHT22;11585;51.450;-0.240;2023-07-13T12:21:34;20.80;99.90
22838;DHT22;11585;51.450;-0.240;2023-07-13T12:24:00;20.80;99.90
22838;DHT22;11585;51.450;-0.240;2023-07-13T12:26:30;20.80;99.90
22838;DHT22;11585;51.450;-0.240;2023-07-13T12:28:58;20.80;99.90
22838;DHT22;11585;51.450;-0.240;2023-07-13T12:31:50;20.80;99.90
22838;DHT22;11585;51.450;-0.240;2023-07-13T12:34:49;20.80;99.90
22838;DHT22;11585;51.450;-0.240;2023-07-13T12:37:16;20.80;99.90
22838;DHT22;11585;51.450;-0.240;2023-07-13T12:39:47;20.80;99.90
22838;DHT22;11585;51.450;-0.240;2023-07-13T12:44:45;20.80;99.90
22838;DHT22;11585;51.450;-0.240;2023-07-13T12:47:13;20.90;99.90
22838;DHT22;11585;51.450;-0.240;2023-07-13T12:49:49;20.90;99.90
22838;DHT22;11585;51.450;-0.240;2023-07-13T12:52:20;20.90;99.90
22838;DHT22;11585;51.450;-0.240;2023-07-13T12:57:38;20.90;99.90
22838;DHT22;11585;51.450;-0.240;2023-07-13T13:02:51;20.90;99.90
22838;DHT22;11585;51.450;-0.240;2023-07-13T13:05:17;20.90;99.90
22838;DHT22;11585;51.450;-0.240;2023-07-13T13:07:43;20.90;99.90
22838;DHT22;11585;51.450;-0.240;2023-07-13T13:10:12;21.00;99.90
22838;DHT22;11585;51.450;-0.240;2023-07-13T13:12:39;21.00;99.90
22838;DHT22;11585;51.450;-0.240;2023-07-13T13:15:08;21.00;99.90
22838;DHT22;11585;51.450;-0.240;2023-07-13T13:17:34;21.00;99.90
22838;DHT22;11585;51.450;-0.240;2023-07-13T13:20:00;21.00;99.90
22838;DHT22;11585;51.450;-0.240;2023-07-13T13:22:25;21.10;99.90
22838;DHT22;11585;51.450;-0.240;2023-07-13T13:24:52;21.10;99.90
22838;DHT22;11585;51.450;-0.240;2023-07-13T13:27:20;21.20;99.90
22838;DHT22;11585;51.450;-0.240;2023-07-13T13:29:46;21.20;99.90
22838;DHT22;11585;51.450;-0.240;2023-07-13T13:32:13;21.20;99.90
22838;DHT22;11585;51.450;-0.240;2023-07-13T13:34:41;21.30;99.90
22838;DHT22;11585;51.450;-0.240;2023-07-13T13:37:33;21.30;99.90
22838;DHT22;11585;51.450;-0.240;2023-07-13T13:39:59;21.40;99.90
22838;DHT22;11585;51.450;-0.240;2023-07-13T13:42:25;21.40;99.90
22838;DHT22;11585;51.450;-0.240;2023-07-13T13:44:54;21.40;99.90
22838;DHT22;11585;51.450;-0.240;2023-07-13T13:47:30;21.40;99.90
22838;DHT22;11585;51.450;-0.240;2023-07-13T13:49:56;21.50;99.90
22838;DHT22;11585;51.450;-0.240;2023-07-13T13:52:23;21.50;99.90
22838;DHT22;11585;51.450;-0.240;2023-07-13T13:54:49;21.50;99.90
22838;DHT22;11585;51.450;-0.240;2023-07-13T13:57:15;21.50;99.90
22838;DHT22;11585;51.450;-0.240;2023-07-13T13:59:41;21.50;99.90
22838;DHT22;11585;51.450;-0.240;2023-07-13T14:02:26;21.50;99.90
22838;DHT22;11585;51.450;-0.240;2023-07-13T14:05:02;21.50;99.90
22838;DHT22;11585;51.450;-0.240;2023-07-13T14:07:28;21.50;99.90
22838;DHT22;11585;51.450;-0.240;2023-07-13T14:09:59;21.50;99.90
22838;DHT22;11585;51.450;-0.240;2023-07-13T14:12:27;21.50;99.90
22838;DHT22;11585;51.450;-0.240;2023-07-13T14:15:17;21.50;99.90
22838;DHT22;11585;51.450;-0.240;2023-07-13T14:17:44;21.60;99.90
22838;DHT22;11585;51.450;-0.240;2023-07-13T14:20:13;21.60;99.90
22838;DHT22;11585;51.450;-0.240;2023-07-13T14:22:41;21.60;99.90
22838;DHT22;11585;51.450;-0.240;2023-07-13T14:25:11;21.60;99.90
22838;DHT22;11585;51.450;-0.240;2023-07-13T14:27:38;21.60;99.90
22838;DHT22;11585;51.450;-0.240;2023-07-13T14:30:05;21.50;99.90
22838;DHT22;11585;51.450;-0.240;2023-07-13T14:32:34;21.60;99.90
22838;DHT22;11585;51.450;-0.240;2023-07-13T14:35:20;21.60;99.90
22838;DHT22;11585;51.450;-0.240;2023-07-13T14:37:47;21.60;99.90
22838;DHT22;11585;51.450;-0.240;2023-07-13T14:40:28;21.60;99.90
22838;DHT22;11585;51.450;-0.240;2023-07-13T14:42:54;21.60;99.90
22838;DHT22;11585;51.450;-0.240;2023-07-13T14:45:20;21.60;99.90
22838;DHT22;11585;51.450;-0.240;2023-07-13T14:47:47;21.60;99.90
22838;DHT22;11585;51.450;-0.240;2023-07-13T14:50:18;21.70;99.90
22838;DHT22;11585;51.450;-0.240;2023-07-13T14:52:45;21.70;99.90
22838;DHT22;11585;51.450;-0.240;2023-07-13T14:55:16;21.70;99.90
22838;DHT22;11585;51.450;-0.240;2023-07-13T14:57:42;21.80;99.90
22838;DHT22;11585;51.450;-0.240;2023-07-13T15:00:21;21.80;99.90
22838;DHT22;11585;51.450;-0.240;2023-07-13T15:02:51;21.80;99.90
22838;DHT22;11585;51.450;-0.240;2023-07-13T15:05:23;21.80;99.90
22838;DHT22;11585;51.450;-0.240;2023-07-13T15:07:50;21.90;99.90
22838;DHT22;11585;51.450;-0.240;2023-07-13T15:10:22;21.90;99.90
22838;DHT22;11585;51.450;-0.240;2023-07-13T15:12:51;21.90;99.90
22838;DHT22;11585;51.450;-0.240;2023-07-13T15:15:17;22.00;99.90
22838;DHT22;11585;51.450;-0.240;2023-07-13T15:17:45;22.00;99.90
22838;DHT22;11585;51.450;-0.240;2023-07-13T15:20:33;22.00;99.90
22838;DHT22;11585;51.450;-0.240;2023-07-13T15:23:01;22.00;99.90
22838;DHT22;11585;51.450;-0.240;2023-07-13T15:25:32;22.10;99.90
22838;DHT22;11585;51.450;-0.240;2023-07-13T15:27:59;22.10;99.90
22838;DHT22;11585;51.450;-0.240;2023-07-13T15:30:40;22.00;99.90
22838;DHT22;11585;51.450;-0.240;2023-07-13T15:35:36;22.10;99.90
22838;DHT22;11585;51.450;-0.240;2023-07-13T15:38:13;22.10;99.90
22838;DHT22;11585;51.450;-0.240;2023-07-13T15:40:38;22.10;99.90
22838;DHT22;11585;51.450;-0.240;2023-07-13T15:43:13;22.10;99.90
22838;DHT22;11585;51.450;-0.240;2023-07-13T15:45:40;22.10;99.90
22838;DHT22;11585;51.450;-0.240;2023-07-13T15:50:50;22.10;99.90
22838;DHT22;11585;51.450;-0.240;2023-07-13T15:53:23;22.10;99.90
22838;DHT22;11585;51.450;-0.240;2023-07-13T15:55:49;22.00;99.90
22838;DHT22;11585;51.450;-0.240;2023-07-13T15:58:16;22.00;99.90
22838;DHT22;11585;51.450;-0.240;2023-07-13T16:00:42;22.00;99.90
22838;DHT22;11585;51.450;-0.240;2023-07-13T16:03:10;22.00;99.90
22838;DHT22;11585;51.450;-0.240;2023-07-13T16:05:38;22.00;99.90
22838;DHT22;11585;51.450;-0.240;2023-07-13T16:08:05;22.00;99.90
22838;DHT22;11585;51.450;-0.240;2023-07-13T16:10:34;22.00;99.90
22838;DHT22;11585;51.450;-0.240;2023-07-13T16:13:03;22.00;99.90
22838;DHT22;11585;51.450;-0.240;2023-07-13T16:15:30;22.00;99.90
22838;DHT22;11585;51.450;-0.240;2023-07-13T16:17:57;22.00;99.90
22838;DHT22;11585;51.450;-0.240;2023-07-13T16:20:23;21.90;99.90
22838;DHT22;11585;51.450;-0.240;2023-07-13T16:22:51;21.90;99.90
22838;DHT22;11585;51.450;-0.240;2023-07-13T16:25:22;21.90;99.90
22838;DHT22;11585;51.450;-0.240;2023-07-13T16:27:53;21.90;99.90
22838;DHT22;11585;51.450;-0.240;2023-07-13T16:30:22;21.90;99.90
22838;DHT22;11585;51.450;-0.240;2023-07-13T16:32:52;21.80;99.90
22838;DHT22;11585;51.450;-0.240;2023-07-13T16:35:23;21.80;99.90
22838;DHT22;11585;51.450;-0.240;2023-07-13T16:37:50;21.80;99.90
22838;DHT22;11585;51.450;-0.240;2023-07-13T16:40:25;21.80;99.90
22838;DHT22;11585;51.450;-0.240;2023-07-13T16:42:54;21.80;99.90
22838;DHT22;11585;51.450;-0.240;2023-07-13T16:45:25;21.80;99.90
22838;DHT22;11585;51.450;-0.240;2023-07-13T16:47:52;21.70;99.90
22838;DHT22;11585;51.450;-0.240;2023-07-13T16:50:23;21.70;99.90
22838;DHT22;11585;51.450;-0.240;2023-07-13T16:52:50;21.70;99.90
22838;DHT22;11585;51.450;-0.240;2023-07-13T16:55:20;21.70;99.90
22838;DHT22;11585;51.450;-0.240;2023-07-13T16:57:57;21.70;99.90
22838;DHT22;11585;51.450;-0.240;2023-07-13T17:00:31;21.70;99.90
22838;DHT22;11585;51.450;-0.240;2023-07-13T17:03:02;21.70;99.90
22838;DHT22;11585;51.450;-0.240;2023-07-13T17:05:50;21.70;99.90
22838;DHT22;11585;51.450;-0.240;2023-07-13T17:08:21;21.70;99.90